Bookmark and Share
Track history (hours):
 

Alkyonis

Last reported at 2013-Apr-11 12:30 UTC. Time now 2014-Apr-24 09:30 UTC.
Position N 01°10' E 103°41'.
Warning: this ship's position is years out of date!

Length 228 m; draft 12.1 m.

Type: Tanker. MMSI: 237898000.

NotesDate/timePositionNaut miles runAvg speedWind from/ knotsBaromVisibWave heightAir tempDewpointWater temp
2013-Apr-11 12:30N 01°10' E 103°41'8 8.2
2013-Apr-11 11:30N 01°12' E 103°49'1 1.5
2013-Apr-11 10:31N 01°14' E 103°48'0 0.1
2013-Apr-11 09:31N 01°14' E 103°48'0 0.1
2013-Apr-11 08:31N 01°14' E 103°48'0 0.1
2013-Apr-11 07:31N 01°14' E 103°48'0 0.0
2013-Apr-11 06:31N 01°14' E 103°48'0 0.0
2013-Apr-11 04:31N 01°14' E 103°48'0 0.1
2013-Apr-11 03:31N 01°14' E 103°48'0 0.1
2013-Apr-11 02:31N 01°14' E 103°48'0 0.1
2013-Apr-11 01:25N 01°14' E 103°48'0 0.1
2013-Apr-11 00:31N 01°14' E 103°48'0 0.1
2013-Apr-10 23:26N 01°14' E 103°48'2 2.0
2013-Apr-10 22:33N 01°14' E 103°47'2 0.1
2013-Apr-09 14:19N 01°14' E 103°45'0 0.5
2013-Apr-09 13:33N 01°15' E 103°45'3 3.0
2013-Apr-09 12:31N 01°14' E 103°48'0 0.1
2013-Apr-09 11:31N 01°14' E 103°48'0 0.1
2013-Apr-09 10:25N 01°14' E 103°48'0 0.1
2013-Apr-09 09:28N 01°14' E 103°48'0 0.1
2013-Apr-09 08:31N 01°14' E 103°48'0 0.1
2013-Apr-09 07:31N 01°14' E 103°48'0 0.1
2013-Apr-09 06:13N 01°14' E 103°48'0 0.0
2013-Apr-09 04:19N 01°14' E 103°48'0 0.1
2013-Apr-09 03:31N 01°14' E 103°48'0 0.1
2013-Apr-09 02:16N 01°14' E 103°48'0 0.0
2013-Apr-09 01:25N 01°14' E 103°48'0 0.0
2013-Apr-09 00:31N 01°14' E 103°48'0 0.1
2013-Apr-08 23:31N 01°14' E 103°48'0 0.2
2013-Apr-08 22:31N 01°14' E 103°48'0 0.1
2013-Apr-08 21:31N 01°14' E 103°48'0 0.1
2013-Apr-08 20:25N 01°14' E 103°48'0 0.0
2013-Apr-08 19:25N 01°14' E 103°48'0 0.0
2013-Apr-08 18:31N 01°14' E 103°48'0 0.0
2013-Apr-08 15:28N 01°14' E 103°48'0 0.2
2013-Apr-08 14:28N 01°14' E 103°48'0 0.1
2013-Apr-08 13:31N 01°14' E 103°48'0 0.0
2013-Apr-08 12:25N 01°14' E 103°48'0 0.1
2013-Apr-08 11:31N 01°14' E 103°48'0 0.0
2013-Apr-08 10:31N 01°14' E 103°48'0 0.1
2013-Apr-08 09:31N 01°14' E 103°48'0 0.0
2013-Apr-08 08:31N 01°14' E 103°48'0 0.0
2013-Apr-08 07:19N 01°14' E 103°48'0 0.0
2013-Apr-08 06:31N 01°14' E 103°48'0 0.0
2013-Apr-08 04:31N 01°14' E 103°48'0 0.0
2013-Apr-08 03:31N 01°14' E 103°48'0 0.1
2013-Apr-08 02:25N 01°14' E 103°48'0 0.1
2013-Apr-08 01:22N 01°14' E 103°48'0 0.0
2013-Apr-08 00:31N 01°14' E 103°48'0 0.0
2013-Apr-06 15:13N 01°14' E 103°48'0 0.0
2013-Apr-06 13:19N 01°14' E 103°48'0 0.0
2013-Apr-06 12:31N 01°14' E 103°48'0 0.0
2013-Apr-06 11:31N 01°14' E 103°48'0 0.0
2013-Apr-06 10:31N 01°14' E 103°48'0 0.1
2013-Apr-06 09:31N 01°14' E 103°48'0 0.1
2013-Apr-06 08:31N 01°14' E 103°48'0 0.0
2013-Apr-06 07:31N 01°14' E 103°48'0 0.1
2013-Apr-06 06:25N 01°14' E 103°48'0 0.0
2013-Apr-06 04:31N 01°14' E 103°48'0 0.0
2013-Apr-06 03:31N 01°14' E 103°48'0 0.0
2013-Apr-06 02:28N 01°14' E 103°48'0 0.1
2013-Apr-06 01:31N 01°14' E 103°48'0 0.0
2013-Apr-06 00:31N 01°14' E 103°48'0 0.0
2013-Apr-05 23:31N 01°14' E 103°48'0 0.0
2013-Apr-05 22:31N 01°14' E 103°48'0 0.2
2013-Apr-05 21:28N 01°14' E 103°48'0 0.1
2013-Apr-05 20:25N 01°14' E 103°48'0 0.0
2013-Apr-05 19:31N 01°14' E 103°48'0 0.1
2013-Apr-05 18:25N 01°14' E 103°48'0 0.1
2013-Apr-05 16:25N 01°14' E 103°48'0 0.1
2013-Apr-05 15:31N 01°14' E 103°48'0 0.1
2013-Apr-05 14:31N 01°14' E 103°48'0 0.0
2013-Apr-05 13:31N 01°14' E 103°48'0 0.0
2013-Apr-05 12:25N 01°14' E 103°48'0 0.0
2013-Apr-05 11:22N 01°14' E 103°48'0 0.1
2013-Apr-05 10:22N 01°14' E 103°48'0 0.1
2013-Apr-05 09:31N 01°14' E 103°48'0 0.0
2013-Apr-05 07:25N 01°14' E 103°48'0 0.0
2013-Apr-05 04:19N 01°14' E 103°48'0 0.0
2013-Apr-05 03:19N 01°14' E 103°48'0 0.0
2013-Apr-05 02:31N 01°14' E 103°48'0 0.0
2013-Apr-05 01:31N 01°14' E 103°48'0 0.1
2013-Apr-05 00:31N 01°14' E 103°48'0 0.0
2013-Apr-04 23:13N 01°14' E 103°48'0 0.0
2013-Apr-04 22:31N 01°14' E 103°48'0 0.1
2013-Apr-04 21:31N 01°14' E 103°48'0 0.1
2013-Apr-04 20:31N 01°14' E 103°48'0 0.0
2013-Apr-04 19:31N 01°14' E 103°48'0 0.0
2013-Apr-04 18:25N 01°14' E 103°48'0 0.1
2013-Apr-04 17:31N 01°14' E 103°48'0 0.0
2013-Apr-04 16:31N 01°14' E 103°48'0 0.1
2013-Apr-04 15:31N 01°14' E 103°48'0 0.0
2013-Apr-04 14:25N 01°14' E 103°48'0 0.0
2013-Apr-04 13:31N 01°14' E 103°48'0 0.0
2013-Apr-04 12:31N 01°14' E 103°48'0 0.1
2013-Apr-04 11:31N 01°14' E 103°48'0 0.1
2013-Apr-04 10:31N 01°14' E 103°48'0 0.1
2013-Apr-04 08:31N 01°14' E 103°48'0 0.1
2013-Apr-04 07:31N 01°14' E 103°48'0 0.1
2013-Apr-04 06:25N 01°14' E 103°48'0 0.0
2013-Apr-04 04:28N 01°14' E 103°48'0 0.1
2013-Apr-04 03:31N 01°14' E 103°48'0 0.1
2013-Apr-04 02:31N 01°14' E 103°48'0 0.0
2013-Apr-04 01:31N 01°14' E 103°48'0 0.1
2013-Apr-04 00:25N 01°14' E 103°48'0 0.0
2013-Apr-03 23:13N 01°14' E 103°48'0 0.1
2013-Apr-03 22:16N 01°14' E 103°48'0 0.0
2013-Apr-03 21:31N 01°14' E 103°48'0 0.2
2013-Apr-03 20:25N 01°14' E 103°48'0 0.1
2013-Apr-03 19:31N 01°14' E 103°48'0 0.1
2013-Apr-03 18:31N 01°14' E 103°48'0 0.1
2013-Apr-03 17:22N 01°14' E 103°48'0 0.1
2013-Apr-03 16:31N 01°14' E 103°48'0 0.1
2013-Apr-03 15:31N 01°14' E 103°48'0 0.0
2013-Apr-03 14:25N 01°14' E 103°48'0 0.0
2013-Apr-03 13:31N 01°14' E 103°48'0 0.1
2013-Apr-03 12:28N 01°14' E 103°48'0 0.1
2013-Apr-03 11:31N 01°14' E 103°48'0 0.1
2013-Apr-03 10:31N 01°14' E 103°48'0 0.0
2013-Apr-03 09:28N 01°14' E 103°48'0 0.2
2013-Apr-03 08:31N 01°14' E 103°48'0 0.1
2013-Apr-03 07:31N 01°14' E 103°48'0 0.0
2013-Apr-03 06:31N 01°14' E 103°48'0 0.0
2013-Apr-03 04:22N 01°14' E 103°48'0 0.0
2013-Apr-03 03:31N 01°14' E 103°48'0 0.0
2013-Apr-03 01:19N 01°14' E 103°48'0 0.0
2013-Apr-03 00:31N 01°14' E 103°48'0 0.0
2013-Apr-02 23:25N 01°14' E 103°48'0 0.1
2013-Apr-02 22:31N 01°14' E 103°48'0 0.1
2013-Apr-02 21:31N 01°14' E 103°48'0 0.1
2013-Apr-02 20:25N 01°14' E 103°48'0 0.1
2013-Apr-02 19:19N 01°14' E 103°48'1 1.5
2013-Apr-02 18:33N 01°14' E 103°47'8 5.6
2013-Apr-02 17:10N 01°12' E 103°39'  

Dump ship's entire track history

sailing weather and tide predictions

Alkyonis — SVCO — position and weather